Fremont, MI

2:26 PM EDT on May 26, 2017 (GMT -0400)
Fremont

Weather History for KFFX - November, 2012

Change the Weather History Date:

Sunday, November 4, 2012

  Actual Average (KMKG) Record (KMKG)
Temperature  
Mean Temperature 35 °F -  
Max Temperature 42 °F 47 °F 70 °F (1938)
Min Temperature 27 °F 37 °F 18 °F (1951)
Degree Days  
Heating Degree Days 30    
Moisture  
Dew Point 25 °F    
Average Humidity 68    
Maximum Humidity 94    
Minimum Humidity 51    
Precipitation  
Precipitation 0.00 in - - ()
Sea Level Pressure  
Sea Level Pressure 30.19 in    
Wind  
Wind Speed 4 mph (NNW)    
Max Wind Speed 8 mph    
Max Gust Speed -    
Visibility 10 miles    
Events      
Averages and records for this station are not official NWS values.
T = Trace of Precipitation, MM = Missing Value Source: NWS Daily Summary

Daily Weather History Graph

Daily Weather History Graph

Search for Another Location

Airport or City:

Trip Planner

Search our weather history database for the weather conditions in past years. The results will help you decide how hot, cold, wet, or windy it might be!

Date:

Astronomy

Nov. 04, 2012 Rise Set
Actual Time 7:23 AM EST 5:30 PM EST
Civil Twilight 6:53 AM EST 6:00 PM EST
Nautical Twilight 6:19 AM EST 6:34 PM EST
Astronomical Twilight 5:46 AM EST 7:07 PM EST
Moon 10:06 PM EST (11/4) 12:09 PM EST (11/4)
Length of Visible Light 11h 06m
Length of Day
10h 06m
Waning Gibbous, 72% of the Moon is Illuminated
Nov 4
Waning Gibbous
Nov 6
Last Quarter
Nov 13
New
Nov 20
First Quarter
Nov 28
Full

Hourly Weather History & Observations

Time (EST) Temp. Windchill Dew Point Humidity Pressure Visibility Wind Dir Wind Speed Gust Speed Precip Events Conditions
12:14 AM 36.1 °F 31.4 °F 25.7 °F 66% 30.19 in 10.0 mi NNW 5.8 mph - N/A   Overcast
12:35 AM 35.8 °F 30.9 °F 25.9 °F 67% 30.19 in 10.0 mi North 5.8 mph - N/A   Overcast
12:54 AM 35.6 °F 31.7 °F 25.5 °F 67% 30.19 in 10.0 mi North 4.6 mph - N/A   Overcast
1:14 AM 35.4 °F 30.5 °F 24.8 °F 65% 30.20 in 10.0 mi North 5.8 mph - N/A   Overcast
1:34 AM 35.2 °F 31.2 °F 25.0 °F 66% 30.19 in 10.0 mi NNE 4.6 mph - N/A   Overcast
1:54 AM 35.2 °F 30.3 °F 25.0 °F 66% 30.20 in 10.0 mi North 5.8 mph - N/A   Overcast
1:15 AM 35.1 °F 31.0 °F 24.8 °F 66% 30.20 in 10.0 mi NNW 4.6 mph - N/A   Overcast
1:34 AM 34.9 °F - 24.6 °F 66% 30.20 in 10.0 mi Calm Calm - N/A   Overcast
1:54 AM 34.9 °F 32.0 °F 24.4 °F 66% 30.20 in 10.0 mi NNE 3.5 mph - N/A   Overcast
2:14 AM 34.9 °F - 24.6 °F 66% 30.20 in 10.0 mi Calm Calm - N/A   Overcast
2:34 AM 34.7 °F - 25.3 °F 69% 30.20 in 10.0 mi Calm Calm - N/A   Overcast
2:55 AM 34.9 °F - 24.8 °F 67% 30.20 in 10.0 mi Calm Calm - N/A   Overcast
3:14 AM 34.7 °F 30.6 °F 25.0 °F 68% 30.19 in 10.0 mi NNE 4.6 mph - N/A   Overcast
3:34 AM 34.9 °F - 24.8 °F 67% 30.19 in 10.0 mi Calm Calm - N/A   Overcast
3:54 AM 34.9 °F 30.8 °F 25.7 °F 69% 30.19 in 10.0 mi NNW 4.6 mph - N/A   Overcast
4:14 AM 34.9 °F 32.0 °F 24.6 °F 66% 30.19 in 10.0 mi NNE 3.5 mph - N/A   Overcast
4:34 AM 34.9 °F 30.8 °F 24.6 °F 66% 30.19 in 10.0 mi North 4.6 mph - N/A   Overcast
4:54 AM 34.9 °F 32.0 °F 24.8 °F 67% 30.20 in 10.0 mi NNW 3.5 mph - N/A   Overcast
5:15 AM 34.9 °F - 25.3 °F 68% 30.20 in 10.0 mi Calm Calm - N/A   Overcast
5:34 AM 35.1 °F 28.6 °F 25.7 °F 69% 30.20 in 10.0 mi NNW 8.1 mph - N/A   Overcast
5:54 AM 34.7 °F 31.8 °F 25.9 °F 70% 30.20 in 10.0 mi North 3.5 mph - N/A   Overcast
6:14 AM 34.7 °F 31.8 °F 25.5 °F 69% 30.21 in 10.0 mi North 3.5 mph - N/A   Overcast
6:34 AM 34.7 °F 31.8 °F 25.3 °F 69% 30.21 in 10.0 mi NNW 3.5 mph - N/A   Overcast
6:54 AM 34.3 °F 31.4 °F 24.8 °F 68% 30.21 in 10.0 mi NNE 3.5 mph - N/A   Overcast
7:14 AM 34.2 °F 30.0 °F 24.4 °F 68% 30.21 in 10.0 mi NNW 4.6 mph - N/A   Overcast
7:35 AM 34.0 °F 28.8 °F 24.4 °F 68% 30.21 in 10.0 mi NNW 5.8 mph - N/A   Overcast
7:54 AM 34.0 °F 28.0 °F 24.1 °F 67% 30.22 in 10.0 mi North 6.9 mph - N/A   Overcast
8:14 AM 34.0 °F 28.8 °F 23.9 °F 67% 30.22 in 10.0 mi North 5.8 mph - N/A   Overcast
8:35 AM 34.2 °F 29.0 °F 24.1 °F 67% 30.22 in 10.0 mi NNW 5.8 mph - N/A   Overcast
8:54 AM 34.2 °F 31.2 °F 24.3 °F 67% 30.23 in 10.0 mi North 3.5 mph - N/A   Overcast
9:14 AM 34.3 °F 30.2 °F 23.9 °F 66% 30.22 in 10.0 mi North 4.6 mph - N/A   Overcast
9:34 AM 34.7 °F 29.6 °F 24.3 °F 66% 30.22 in 10.0 mi NNE 5.8 mph - N/A   Overcast
9:54 AM 35.1 °F 29.3 °F 24.3 °F 65% 30.22 in 10.0 mi NNE 6.9 mph - N/A   Overcast
10:15 AM 35.8 °F 31.9 °F 24.6 °F 64% 30.21 in 10.0 mi North 4.6 mph - N/A   Overcast
10:34 AM 35.6 °F 31.7 °F 24.4 °F 64% 30.21 in 10.0 mi NNE 4.6 mph - N/A   Overcast
10:55 AM 36.7 °F 32.0 °F 24.6 °F 62% 30.21 in 10.0 mi North 5.8 mph - N/A   Overcast
11:14 AM 36.7 °F 32.0 °F 24.6 °F 62% 30.21 in 10.0 mi North 5.8 mph - N/A   Overcast
11:35 AM 37.6 °F 32.3 °F 25.0 °F 60% 30.21 in 10.0 mi North 6.9 mph - N/A   Overcast
11:54 AM 37.8 °F 32.5 °F 24.6 °F 59% 30.20 in 10.0 mi North 6.9 mph - N/A   Overcast
12:15 PM 38.1 °F 33.7 °F 24.8 °F 59% 30.20 in 10.0 mi NNE 5.8 mph - N/A   Mostly Cloudy
12:34 PM 38.1 °F 33.7 °F 24.4 °F 58% 30.20 in 10.0 mi North 5.8 mph - N/A   Mostly Cloudy
12:54 PM 39.4 °F - 24.6 °F 56% 30.19 in 10.0 mi Calm Calm - N/A   Scattered Clouds
1:15 PM 39.4 °F - 24.6 °F 56% 30.19 in 10.0 mi Calm Calm - N/A   Scattered Clouds
1:34 PM 40.3 °F 36.3 °F 25.0 °F 54% 30.18 in 10.0 mi NNW 5.8 mph - N/A   Mostly Cloudy
1:55 PM 40.3 °F 38.2 °F 24.4 °F 53% 30.18 in 10.0 mi WNW 3.5 mph - N/A   Scattered Clouds
2:14 PM 42.1 °F 40.2 °F 25.2 °F 51% 30.18 in 10.0 mi NW 3.5 mph - N/A   Clear
2:34 PM 41.2 °F 38.2 °F 25.0 °F 53% 30.17 in 10.0 mi NNW 4.6 mph - N/A   Clear
2:55 PM 42.3 °F 37.3 °F 25.7 °F 52% 30.17 in 10.0 mi NNW 8.1 mph - N/A   Scattered Clouds
3:14 PM 42.4 °F 37.5 °F 25.5 °F 51% 30.17 in 10.0 mi NNW 8.1 mph - N/A   Scattered Clouds
3:34 PM 42.1 °F 38.4 °F 25.3 °F 52% 30.16 in 10.0 mi NW 5.8 mph - N/A   Clear
3:54 PM 41.9 °F 37.5 °F 25.3 °F 52% 30.16 in 10.0 mi NNW 6.9 mph - N/A   Scattered Clouds
4:14 PM 40.3 °F 34.9 °F 25.9 °F 56% 30.17 in 10.0 mi NW 8.1 mph - N/A   Scattered Clouds
4:35 PM 40.5 °F 35.1 °F 26.1 °F 57% 30.17 in 10.0 mi NNW 8.1 mph - N/A   Scattered Clouds
4:54 PM 38.8 °F 34.6 °F 26.6 °F 61% 30.17 in 10.0 mi NNW 5.8 mph - N/A   Clear
5:14 PM 37.6 °F 33.1 °F 26.4 °F 64% 30.17 in 10.0 mi NNW 5.8 mph - N/A   Clear
5:35 PM 36.0 °F 32.1 °F 26.1 °F 67% 30.17 in 10.0 mi NW 4.6 mph - N/A   Clear
5:54 PM 34.3 °F 30.2 °F 26.4 °F 73% 30.17 in 10.0 mi NW 4.6 mph - N/A   Clear
6:14 PM 34.0 °F 31.0 °F 25.7 °F 72% 30.17 in 10.0 mi West 3.5 mph - N/A   Clear
6:34 PM 32.5 °F - 25.7 °F 76% 30.18 in 10.0 mi Calm Calm - N/A   Clear
6:54 PM 32.0 °F 28.7 °F 25.5 °F 77% 30.18 in 10.0 mi West 3.5 mph - N/A   Clear
7:14 PM 31.1 °F 27.7 °F 26.2 °F 82% 30.18 in 10.0 mi WNW 3.5 mph - N/A   Clear
7:34 PM 31.6 °F 28.3 °F 26.6 °F 82% 30.18 in 10.0 mi WNW 3.5 mph - N/A   Clear
7:55 PM 31.8 °F 28.5 °F 26.6 °F 81% 30.18 in 10.0 mi NW 3.5 mph - N/A   Clear
8:14 PM 31.6 °F - 26.4 °F 81% 30.18 in 10.0 mi Calm Calm - N/A   Clear
8:35 PM 30.9 °F - 26.6 °F 84% 30.18 in 10.0 mi Calm Calm - N/A   Clear
8:54 PM 29.7 °F - 25.7 °F 85% 30.18 in 10.0 mi Calm Calm - N/A   Clear
9:15 PM 30.9 °F - 27.0 °F 85% 30.18 in 10.0 mi Calm Calm - N/A   Clear
9:34 PM 29.8 °F - 26.6 °F 88% 30.18 in 10.0 mi Calm Calm - N/A   Clear
9:54 PM 30.0 °F 26.5 °F 26.6 °F 87% 30.18 in 10.0 mi NNW 3.5 mph - N/A   Clear
10:14 PM 29.1 °F - 26.4 °F 90% 30.18 in 10.0 mi Calm Calm - N/A   Clear
10:34 PM 28.2 °F - 26.6 °F 94% 30.19 in 10.0 mi Calm Calm - N/A   Clear
10:54 PM 27.5 °F - 25.3 °F 92% 30.19 in 10.0 mi Calm Calm - N/A   Clear